sensor_id;sensor_type;location;lat;lon;timestamp;P1;durP1;ratioP1;P2;durP2;ratioP2
3597;SDS011;1813;52.016;8.714;2023-02-28T00:00:50;22.67;;;11.70;;
3597;SDS011;1813;52.016;8.714;2023-02-28T00:03:23;20.20;;;10.90;;
3597;SDS011;1813;52.016;8.714;2023-02-28T00:05:58;18.20;;;10.77;;
3597;SDS011;1813;52.016;8.714;2023-02-28T00:08:35;19.30;;;11.40;;
3597;SDS011;1813;52.016;8.714;2023-02-28T00:11:10;28.43;;;11.60;;
3597;SDS011;1813;52.016;8.714;2023-02-28T00:13:45;20.87;;;11.30;;
3597;SDS011;1813;52.016;8.714;2023-02-28T00:16:21;19.23;;;11.43;;
3597;SDS011;1813;52.016;8.714;2023-02-28T00:18:55;17.53;;;10.50;;
3597;SDS011;1813;52.016;8.714;2023-02-28T00:21:30;22.83;;;11.20;;
3597;SDS011;1813;52.016;8.714;2023-02-28T00:24:07;18.00;;;11.37;;
3597;SDS011;1813;52.016;8.714;2023-02-28T00:26:43;20.57;;;11.00;;
3597;SDS011;1813;52.016;8.714;2023-02-28T00:29:18;15.40;;;10.40;;
3597;SDS011;1813;52.016;8.714;2023-02-28T00:31:51;17.60;;;10.90;;
3597;SDS011;1813;52.016;8.714;2023-02-28T00:34:25;17.40;;;10.97;;
3597;SDS011;1813;52.016;8.714;2023-02-28T00:37:00;19.33;;;11.50;;
3597;SDS011;1813;52.016;8.714;2023-02-28T00:39:40;18.27;;;11.23;;
3597;SDS011;1813;52.016;8.714;2023-02-28T00:42:14;20.60;;;11.40;;
3597;SDS011;1813;52.016;8.714;2023-02-28T00:44:51;17.90;;;11.10;;
3597;SDS011;1813;52.016;8.714;2023-02-28T00:47:25;17.70;;;11.27;;
3597;SDS011;1813;52.016;8.714;2023-02-28T00:49:59;19.67;;;12.30;;
3597;SDS011;1813;52.016;8.714;2023-02-28T00:52:33;18.40;;;11.63;;
3597;SDS011;1813;52.016;8.714;2023-02-28T00:55:10;22.10;;;11.70;;
3597;SDS011;1813;52.016;8.714;2023-02-28T00:57:45;21.20;;;12.30;;
3597;SDS011;1813;52.016;8.714;2023-02-28T01:00:20;22.17;;;13.13;;
3597;SDS011;1813;52.016;8.714;2023-02-28T01:02:54;24.53;;;12.67;;
3597;SDS011;1813;52.016;8.714;2023-02-28T01:05:28;20.13;;;12.20;;
3597;SDS011;1813;52.016;8.714;2023-02-28T01:08:04;20.27;;;12.83;;
3597;SDS011;1813;52.016;8.714;2023-02-28T01:10:41;21.60;;;12.03;;
3597;SDS011;1813;52.016;8.714;2023-02-28T01:13:16;20.20;;;12.00;;
3597;SDS011;1813;52.016;8.714;2023-02-28T01:15:50;20.33;;;12.30;;
3597;SDS011;1813;52.016;8.714;2023-02-28T01:18:29;18.50;;;12.13;;
3597;SDS011;1813;52.016;8.714;2023-02-28T01:21:03;19.73;;;11.73;;
3597;SDS011;1813;52.016;8.714;2023-02-28T01:23:38;18.63;;;11.70;;
3597;SDS011;1813;52.016;8.714;2023-02-28T01:26:18;21.00;;;11.87;;
3597;SDS011;1813;52.016;8.714;2023-02-28T01:28:53;18.23;;;11.90;;
3597;SDS011;1813;52.016;8.714;2023-02-28T01:31:29;19.70;;;11.67;;
3597;SDS011;1813;52.016;8.714;2023-02-28T01:34:04;19.87;;;11.90;;
3597;SDS011;1813;52.016;8.714;2023-02-28T01:36:39;19.73;;;12.07;;
3597;SDS011;1813;52.016;8.714;2023-02-28T01:39:15;19.57;;;12.17;;
3597;SDS011;1813;52.016;8.714;2023-02-28T01:41:52;16.50;;;11.40;;
3597;SDS011;1813;52.016;8.714;2023-02-28T01:47:31;22.00;;;12.60;;
3597;SDS011;1813;52.016;8.714;2023-02-28T01:50:08;18.37;;;11.70;;
3597;SDS011;1813;52.016;8.714;2023-02-28T01:52:48;17.33;;;11.80;;
3597;SDS011;1813;52.016;8.714;2023-02-28T01:55:24;19.00;;;11.87;;
3597;SDS011;1813;52.016;8.714;2023-02-28T01:58:04;19.00;;;12.40;;
3597;SDS011;1813;52.016;8.714;2023-02-28T02:00:40;19.83;;;12.40;;
3597;SDS011;1813;52.016;8.714;2023-02-28T02:03:15;20.97;;;12.27;;
3597;SDS011;1813;52.016;8.714;2023-02-28T02:05:54;19.50;;;12.30;;
3597;SDS011;1813;52.016;8.714;2023-02-28T02:08:30;21.67;;;12.60;;
3597;SDS011;1813;52.016;8.714;2023-02-28T02:11:04;21.47;;;12.00;;
3597;SDS011;1813;52.016;8.714;2023-02-28T02:13:50;22.73;;;13.30;;
3597;SDS011;1813;52.016;8.714;2023-02-28T02:16:48;21.10;;;12.30;;
3597;SDS011;1813;52.016;8.714;2023-02-28T02:23:07;20.10;;;12.00;;
3597;SDS011;1813;52.016;8.714;2023-02-28T02:26:04;21.87;;;13.17;;
3597;SDS011;1813;52.016;8.714;2023-02-28T02:29:06;18.17;;;12.67;;
3597;SDS011;1813;52.016;8.714;2023-02-28T02:32:08;28.40;;;13.10;;
3597;SDS011;1813;52.016;8.714;2023-02-28T02:34:58;20.70;;;12.87;;
3597;SDS011;1813;52.016;8.714;2023-02-28T02:37:40;20.80;;;12.83;;
3597;SDS011;1813;52.016;8.714;2023-02-28T02:40:25;18.30;;;11.90;;
3597;SDS011;1813;52.016;8.714;2023-02-28T02:43:06;19.90;;;13.03;;
3597;SDS011;1813;52.016;8.714;2023-02-28T02:45:44;25.83;;;13.47;;
3597;SDS011;1813;52.016;8.714;2023-02-28T02:48:21;21.43;;;12.80;;
3597;SDS011;1813;52.016;8.714;2023-02-28T02:51:05;20.77;;;12.27;;
3597;SDS011;1813;52.016;8.714;2023-02-28T02:53:46;22.20;;;13.00;;
3597;SDS011;1813;52.016;8.714;2023-02-28T02:56:23;18.27;;;11.80;;
3597;SDS011;1813;52.016;8.714;2023-02-28T02:59:01;21.50;;;11.60;;
3597;SDS011;1813;52.016;8.714;2023-02-28T03:01:40;17.33;;;11.10;;
3597;SDS011;1813;52.016;8.714;2023-02-28T03:04:16;17.57;;;11.30;;
3597;SDS011;1813;52.016;8.714;2023-02-28T03:06:55;16.57;;;11.10;;
3597;SDS011;1813;52.016;8.714;2023-02-28T03:09:32;19.50;;;11.70;;
3597;SDS011;1813;52.016;8.714;2023-02-28T03:12:09;23.57;;;11.37;;
3597;SDS011;1813;52.016;8.714;2023-02-28T03:14:50;17.10;;;10.97;;
3597;SDS011;1813;52.016;8.714;2023-02-28T03:17:37;17.57;;;10.90;;
3597;SDS011;1813;52.016;8.714;2023-02-28T03:20:25;18.03;;;10.10;;
3597;SDS011;1813;52.016;8.714;2023-02-28T03:23:13;15.30;;;10.10;;
3597;SDS011;1813;52.016;8.714;2023-02-28T03:25:53;17.10;;;10.87;;
3597;SDS011;1813;52.016;8.714;2023-02-28T03:28:34;19.53;;;10.50;;
3597;SDS011;1813;52.016;8.714;2023-02-28T03:31:16;18.73;;;10.10;;
3597;SDS011;1813;52.016;8.714;2023-02-28T03:34:00;17.37;;;10.47;;
3597;SDS011;1813;52.016;8.714;2023-02-28T03:36:39;17.67;;;11.00;;
3597;SDS011;1813;52.016;8.714;2023-02-28T03:39:20;15.97;;;10.70;;
3597;SDS011;1813;52.016;8.714;2023-02-28T03:41:59;17.57;;;10.80;;
3597;SDS011;1813;52.016;8.714;2023-02-28T03:44:38;17.53;;;9.80;;
3597;SDS011;1813;52.016;8.714;2023-02-28T03:47:16;16.33;;;10.30;;
3597;SDS011;1813;52.016;8.714;2023-02-28T03:49:56;18.93;;;10.63;;
3597;SDS011;1813;52.016;8.714;2023-02-28T03:52:33;15.30;;;10.40;;
3597;SDS011;1813;52.016;8.714;2023-02-28T03:55:15;14.90;;;10.13;;
3597;SDS011;1813;52.016;8.714;2023-02-28T03:57:54;16.80;;;10.50;;
3597;SDS011;1813;52.016;8.714;2023-02-28T04:00:34;14.77;;;10.30;;
3597;SDS011;1813;52.016;8.714;2023-02-28T04:03:10;19.43;;;10.47;;
3597;SDS011;1813;52.016;8.714;2023-02-28T04:05:48;17.70;;;10.20;;
3597;SDS011;1813;52.016;8.714;2023-02-28T04:08:25;18.60;;;10.33;;
3597;SDS011;1813;52.016;8.714;2023-02-28T04:11:03;20.13;;;11.37;;
3597;SDS011;1813;52.016;8.714;2023-02-28T04:13:40;20.73;;;10.73;;
3597;SDS011;1813;52.016;8.714;2023-02-28T04:16:14;17.93;;;10.60;;
3597;SDS011;1813;52.016;8.714;2023-02-28T04:18:50;20.00;;;10.90;;
3597;SDS011;1813;52.016;8.714;2023-02-28T04:21:33;16.17;;;10.43;;
3597;SDS011;1813;52.016;8.714;2023-02-28T04:24:10;20.30;;;11.50;;
3597;SDS011;1813;52.016;8.714;2023-02-28T04:26:49;21.50;;;10.57;;
3597;SDS011;1813;52.016;8.714;2023-02-28T04:29:25;17.80;;;10.30;;
3597;SDS011;1813;52.016;8.714;2023-02-28T04:32:00;18.17;;;11.00;;
3597;SDS011;1813;52.016;8.714;2023-02-28T04:34:36;20.53;;;11.60;;
3597;SDS011;1813;52.016;8.714;2023-02-28T04:37:10;21.40;;;12.10;;
3597;SDS011;1813;52.016;8.714;2023-02-28T04:39:46;19.53;;;11.47;;
3597;SDS011;1813;52.016;8.714;2023-02-28T04:42:22;19.50;;;11.67;;
3597;SDS011;1813;52.016;8.714;2023-02-28T04:44:56;23.00;;;12.30;;
3597;SDS011;1813;52.016;8.714;2023-02-28T04:47:30;18.97;;;12.03;;
3597;SDS011;1813;52.016;8.714;2023-02-28T04:50:05;19.87;;;11.30;;
3597;SDS011;1813;52.016;8.714;2023-02-28T04:52:39;20.40;;;11.53;;
3597;SDS011;1813;52.016;8.714;2023-02-28T04:55:13;18.07;;;10.73;;
3597;SDS011;1813;52.016;8.714;2023-02-28T04:57:50;20.03;;;12.60;;
3597;SDS011;1813;52.016;8.714;2023-02-28T05:00:24;21.70;;;12.90;;
3597;SDS011;1813;52.016;8.714;2023-02-28T05:02:58;21.80;;;12.53;;
3597;SDS011;1813;52.016;8.714;2023-02-28T05:05:32;20.70;;;12.77;;
3597;SDS011;1813;52.016;8.714;2023-02-28T05:08:06;21.70;;;11.50;;
3597;SDS011;1813;52.016;8.714;2023-02-28T05:10:40;19.50;;;11.27;;
3597;SDS011;1813;52.016;8.714;2023-02-28T05:13:16;16.40;;;10.70;;
3597;SDS011;1813;52.016;8.714;2023-02-28T05:15:50;21.47;;;11.47;;
3597;SDS011;1813;52.016;8.714;2023-02-28T05:18:24;19.07;;;12.30;;
3597;SDS011;1813;52.016;8.714;2023-02-28T05:20:59;21.40;;;12.57;;
3597;SDS011;1813;52.016;8.714;2023-02-28T05:23:34;21.60;;;12.87;;
3597;SDS011;1813;52.016;8.714;2023-02-28T05:26:08;17.90;;;11.57;;
3597;SDS011;1813;52.016;8.714;2023-02-28T05:28:46;17.93;;;11.77;;
3597;SDS011;1813;52.016;8.714;2023-02-28T05:31:20;22.47;;;11.47;;
3597;SDS011;1813;52.016;8.714;2023-02-28T05:33:54;15.70;;;10.13;;
3597;SDS011;1813;52.016;8.714;2023-02-28T05:36:29;19.83;;;11.40;;
3597;SDS011;1813;52.016;8.714;2023-02-28T05:39:02;25.40;;;12.53;;
3597;SDS011;1813;52.016;8.714;2023-02-28T05:41:42;27.93;;;12.67;;
3597;SDS011;1813;52.016;8.714;2023-02-28T05:44:19;26.93;;;12.43;;
3597;SDS011;1813;52.016;8.714;2023-02-28T05:46:53;29.40;;;12.60;;
3597;SDS011;1813;52.016;8.714;2023-02-28T05:49:27;19.10;;;11.60;;
3597;SDS011;1813;52.016;8.714;2023-02-28T05:52:01;15.83;;;10.37;;
3597;SDS011;1813;52.016;8.714;2023-02-28T05:54:36;17.00;;;10.23;;
3597;SDS011;1813;52.016;8.714;2023-02-28T05:57:11;16.40;;;11.20;;
3597;SDS011;1813;52.016;8.714;2023-02-28T05:59:48;19.33;;;11.30;;
3597;SDS011;1813;52.016;8.714;2023-02-28T06:02:22;18.17;;;11.47;;
3597;SDS011;1813;52.016;8.714;2023-02-28T06:04:56;18.83;;;10.77;;
3597;SDS011;1813;52.016;8.714;2023-02-28T06:07:29;22.07;;;11.90;;
3597;SDS011;1813;52.016;8.714;2023-02-28T06:10:04;19.60;;;12.27;;
3597;SDS011;1813;52.016;8.714;2023-02-28T06:12:39;18.70;;;12.13;;
3597;SDS011;1813;52.016;8.714;2023-02-28T06:15:16;22.10;;;12.00;;
3597;SDS011;1813;52.016;8.714;2023-02-28T06:17:51;19.67;;;11.83;;
3597;SDS011;1813;52.016;8.714;2023-02-28T06:20:26;22.23;;;11.60;;
3597;SDS011;1813;52.016;8.714;2023-02-28T06:23:01;19.03;;;12.40;;
3597;SDS011;1813;52.016;8.714;2023-02-28T06:25:37;19.67;;;12.37;;
3597;SDS011;1813;52.016;8.714;2023-02-28T06:28:10;18.37;;;11.50;;
3597;SDS011;1813;52.016;8.714;2023-02-28T06:30:47;21.57;;;11.60;;
3597;SDS011;1813;52.016;8.714;2023-02-28T06:33:21;19.70;;;11.90;;
3597;SDS011;1813;52.016;8.714;2023-02-28T06:35:55;19.03;;;10.57;;
3597;SDS011;1813;52.016;8.714;2023-02-28T06:38:29;19.10;;;11.00;;
3597;SDS011;1813;52.016;8.714;2023-02-28T06:41:03;23.43;;;11.13;;
3597;SDS011;1813;52.016;8.714;2023-02-28T06:43:38;19.80;;;11.30;;
3597;SDS011;1813;52.016;8.714;2023-02-28T06:46:16;20.40;;;10.83;;
3597;SDS011;1813;52.016;8.714;2023-02-28T06:48:50;18.13;;;10.33;;
3597;SDS011;1813;52.016;8.714;2023-02-28T06:51:25;18.60;;;10.63;;
3597;SDS011;1813;52.016;8.714;2023-02-28T06:53:59;18.70;;;11.20;;
3597;SDS011;1813;52.016;8.714;2023-02-28T06:56:33;20.43;;;11.43;;
3597;SDS011;1813;52.016;8.714;2023-02-28T06:59:08;18.67;;;11.10;;
3597;SDS011;1813;52.016;8.714;2023-02-28T07:01:45;22.43;;;11.10;;
3597;SDS011;1813;52.016;8.714;2023-02-28T07:04:20;19.63;;;11.30;;
3597;SDS011;1813;52.016;8.714;2023-02-28T07:06:54;17.73;;;11.40;;
3597;SDS011;1813;52.016;8.714;2023-02-28T07:09:28;19.87;;;11.13;;
3597;SDS011;1813;52.016;8.714;2023-02-28T07:12:02;21.07;;;12.93;;
3597;SDS011;1813;52.016;8.714;2023-02-28T07:14:37;19.73;;;11.33;;
3597;SDS011;1813;52.016;8.714;2023-02-28T07:17:14;20.70;;;11.67;;
3597;SDS011;1813;52.016;8.714;2023-02-28T07:19:48;18.20;;;11.10;;
3597;SDS011;1813;52.016;8.714;2023-02-28T07:22:22;17.63;;;11.63;;
3597;SDS011;1813;52.016;8.714;2023-02-28T07:24:56;18.50;;;11.00;;
3597;SDS011;1813;52.016;8.714;2023-02-28T07:27:29;20.00;;;12.40;;
3597;SDS011;1813;52.016;8.714;2023-02-28T07:30:05;28.80;;;12.93;;
3597;SDS011;1813;52.016;8.714;2023-02-28T07:32:43;27.43;;;12.53;;
3597;SDS011;1813;52.016;8.714;2023-02-28T07:35:17;20.13;;;11.10;;
3597;SDS011;1813;52.016;8.714;2023-02-28T07:37:51;19.80;;;10.57;;
3597;SDS011;1813;52.016;8.714;2023-02-28T07:40:25;17.23;;;10.10;;
3597;SDS011;1813;52.016;8.714;2023-02-28T07:42:59;16.70;;;8.90;;
3597;SDS011;1813;52.016;8.714;2023-02-28T07:45:34;15.67;;;9.23;;
3597;SDS011;1813;52.016;8.714;2023-02-28T07:48:11;16.90;;;10.67;;
3597;SDS011;1813;52.016;8.714;2023-02-28T07:50:45;17.23;;;11.10;;
3597;SDS011;1813;52.016;8.714;2023-02-28T07:53:28;14.93;;;10.10;;
3597;SDS011;1813;52.016;8.714;2023-02-28T07:56:07;16.33;;;9.80;;
3597;SDS011;1813;52.016;8.714;2023-02-28T07:58:41;17.10;;;10.37;;
3597;SDS011;1813;52.016;8.714;2023-02-28T08:01:15;19.23;;;10.90;;
3597;SDS011;1813;52.016;8.714;2023-02-28T08:03:52;17.40;;;10.40;;
3597;SDS011;1813;52.016;8.714;2023-02-28T08:06:27;14.93;;;10.27;;
3597;SDS011;1813;52.016;8.714;2023-02-28T08:09:01;16.53;;;10.20;;
3597;SDS011;1813;52.016;8.714;2023-02-28T08:11:35;14.43;;;9.47;;
3597;SDS011;1813;52.016;8.714;2023-02-28T08:14:09;18.33;;;10.40;;
3597;SDS011;1813;52.016;8.714;2023-02-28T08:16:43;18.20;;;9.70;;
3597;SDS011;1813;52.016;8.714;2023-02-28T08:19:20;13.47;;;9.30;;
3597;SDS011;1813;52.016;8.714;2023-02-28T08:21:54;14.83;;;9.70;;
3597;SDS011;1813;52.016;8.714;2023-02-28T08:24:28;15.47;;;9.70;;
3597;SDS011;1813;52.016;8.714;2023-02-28T08:27:02;29.93;;;17.90;;
3597;SDS011;1813;52.016;8.714;2023-02-28T08:29:36;15.73;;;9.23;;
3597;SDS011;1813;52.016;8.714;2023-02-28T08:32:11;13.43;;;8.03;;
3597;SDS011;1813;52.016;8.714;2023-02-28T08:34:47;13.13;;;7.30;;
3597;SDS011;1813;52.016;8.714;2023-02-28T08:37:21;11.43;;;7.53;;
3597;SDS011;1813;52.016;8.714;2023-02-28T08:39:55;13.53;;;7.90;;
3597;SDS011;1813;52.016;8.714;2023-02-28T08:42:29;11.47;;;7.10;;
3597;SDS011;1813;52.016;8.714;2023-02-28T08:45:05;10.30;;;7.10;;
3597;SDS011;1813;52.016;8.714;2023-02-28T08:47:40;12.20;;;7.50;;
3597;SDS011;1813;52.016;8.714;2023-02-28T08:50:17;11.37;;;7.53;;
3597;SDS011;1813;52.016;8.714;2023-02-28T08:52:51;11.63;;;7.23;;
3597;SDS011;1813;52.016;8.714;2023-02-28T08:55:25;12.20;;;6.40;;
3597;SDS011;1813;52.016;8.714;2023-02-28T08:57:59;15.43;;;6.67;;
3597;SDS011;1813;52.016;8.714;2023-02-28T09:00:33;8.60;;;5.70;;
3597;SDS011;1813;52.016;8.714;2023-02-28T09:03:06;10.57;;;5.73;;
3597;SDS011;1813;52.016;8.714;2023-02-28T09:05:43;9.53;;;5.80;;
3597;SDS011;1813;52.016;8.714;2023-02-28T09:08:26;8.20;;;5.80;;
3597;SDS011;1813;52.016;8.714;2023-02-28T09:11:01;9.07;;;5.60;;
3597;SDS011;1813;52.016;8.714;2023-02-28T09:13:36;8.77;;;6.30;;
3597;SDS011;1813;52.016;8.714;2023-02-28T09:16:11;8.50;;;6.70;;
3597;SDS011;1813;52.016;8.714;2023-02-28T09:18:49;10.17;;;6.30;;
3597;SDS011;1813;52.016;8.714;2023-02-28T09:21:26;11.00;;;6.73;;
3597;SDS011;1813;52.016;8.714;2023-02-28T09:24:00;8.93;;;6.60;;
3597;SDS011;1813;52.016;8.714;2023-02-28T09:26:35;11.60;;;6.40;;
3597;SDS011;1813;52.016;8.714;2023-02-28T09:29:10;13.77;;;6.53;;
3597;SDS011;1813;52.016;8.714;2023-02-28T09:31:44;13.10;;;6.27;;
3597;SDS011;1813;52.016;8.714;2023-02-28T09:34:18;7.90;;;5.97;;
3597;SDS011;1813;52.016;8.714;2023-02-28T09:36:56;9.27;;;6.57;;
3597;SDS011;1813;52.016;8.714;2023-02-28T09:39:31;9.07;;;6.90;;
3597;SDS011;1813;52.016;8.714;2023-02-28T09:42:05;8.13;;;6.23;;
3597;SDS011;1813;52.016;8.714;2023-02-28T09:44:45;7.83;;;6.13;;
3597;SDS011;1813;52.016;8.714;2023-02-28T09:47:25;11.20;;;6.30;;
3597;SDS011;1813;52.016;8.714;2023-02-28T09:50:06;11.60;;;5.90;;
3597;SDS011;1813;52.016;8.714;2023-02-28T09:52:54;11.50;;;5.90;;
3597;SDS011;1813;52.016;8.714;2023-02-28T09:55:29;7.67;;;5.87;;
3597;SDS011;1813;52.016;8.714;2023-02-28T09:58:08;10.00;;;5.43;;
3597;SDS011;1813;52.016;8.714;2023-02-28T10:00:54;6.87;;;5.07;;
3597;SDS011;1813;52.016;8.714;2023-02-28T10:03:35;7.60;;;5.20;;
3597;SDS011;1813;52.016;8.714;2023-02-28T10:06:13;11.80;;;4.90;;
3597;SDS011;1813;52.016;8.714;2023-02-28T10:08:55;9.33;;;4.30;;
3597;SDS011;1813;52.016;8.714;2023-02-28T10:11:35;7.47;;;5.17;;
3597;SDS011;1813;52.016;8.714;2023-02-28T10:14:12;7.50;;;5.63;;
3597;SDS011;1813;52.016;8.714;2023-02-28T10:16:50;7.83;;;5.47;;
3597;SDS011;1813;52.016;8.714;2023-02-28T10:19:30;6.70;;;5.00;;
3597;SDS011;1813;52.016;8.714;2023-02-28T10:22:09;7.10;;;5.17;;
3597;SDS011;1813;52.016;8.714;2023-02-28T10:24:52;8.90;;;5.23;;
3597;SDS011;1813;52.016;8.714;2023-02-28T10:27:30;6.90;;;4.80;;
3597;SDS011;1813;52.016;8.714;2023-02-28T10:30:09;8.13;;;5.23;;
3597;SDS011;1813;52.016;8.714;2023-02-28T10:32:49;9.90;;;4.40;;
3597;SDS011;1813;52.016;8.714;2023-02-28T10:35:25;3.30;;;3.00;;
3597;SDS011;1813;52.016;8.714;2023-02-28T10:38:03;3.80;;;3.17;;
3597;SDS011;1813;52.016;8.714;2023-02-28T10:40:50;4.70;;;2.70;;
3597;SDS011;1813;52.016;8.714;2023-02-28T10:43:24;3.13;;;2.30;;
3597;SDS011;1813;52.016;8.714;2023-02-28T10:45:59;4.63;;;2.50;;
3597;SDS011;1813;52.016;8.714;2023-02-28T10:48:37;3.73;;;2.00;;
3597;SDS011;1813;52.016;8.714;2023-02-28T10:51:13;3.67;;;2.20;;
3597;SDS011;1813;52.016;8.714;2023-02-28T10:53:49;5.73;;;2.10;;
3597;SDS011;1813;52.016;8.714;2023-02-28T10:56:28;3.23;;;2.40;;
3597;SDS011;1813;52.016;8.714;2023-02-28T10:59:03;2.70;;;2.03;;
3597;SDS011;1813;52.016;8.714;2023-02-28T11:01:55;3.57;;;2.20;;
3597;SDS011;1813;52.016;8.714;2023-02-28T11:04:33;2.53;;;1.90;;
3597;SDS011;1813;52.016;8.714;2023-02-28T11:07:16;4.40;;;2.33;;
3597;SDS011;1813;52.016;8.714;2023-02-28T11:09:53;4.27;;;2.50;;
3597;SDS011;1813;52.016;8.714;2023-02-28T11:12:32;3.10;;;2.20;;
3597;SDS011;1813;52.016;8.714;2023-02-28T11:15:18;5.80;;;2.33;;
3597;SDS011;1813;52.016;8.714;2023-02-28T11:17:57;3.30;;;2.47;;
3597;SDS011;1813;52.016;8.714;2023-02-28T11:20:34;3.17;;;2.40;;
3597;SDS011;1813;52.016;8.714;2023-02-28T11:23:10;2.97;;;2.53;;
3597;SDS011;1813;52.016;8.714;2023-02-28T11:25:47;2.70;;;2.40;;
3597;SDS011;1813;52.016;8.714;2023-02-28T11:28:27;2.93;;;2.53;;
3597;SDS011;1813;52.016;8.714;2023-02-28T11:31:04;6.57;;;2.87;;
3597;SDS011;1813;52.016;8.714;2023-02-28T11:33:50;5.60;;;2.70;;
3597;SDS011;1813;52.016;8.714;2023-02-28T11:36:28;3.47;;;2.57;;
3597;SDS011;1813;52.016;8.714;2023-02-28T11:39:07;4.63;;;2.80;;
3597;SDS011;1813;52.016;8.714;2023-02-28T11:41:50;4.10;;;3.00;;
3597;SDS011;1813;52.016;8.714;2023-02-28T11:44:42;2.87;;;2.57;;
3597;SDS011;1813;52.016;8.714;2023-02-28T11:47:31;3.53;;;2.53;;
3597;SDS011;1813;52.016;8.714;2023-02-28T11:50:12;3.10;;;2.57;;
3597;SDS011;1813;52.016;8.714;2023-02-28T11:52:54;3.80;;;2.83;;
3597;SDS011;1813;52.016;8.714;2023-02-28T11:55:30;3.20;;;2.70;;
3597;SDS011;1813;52.016;8.714;2023-02-28T11:58:14;7.53;;;3.10;;
3597;SDS011;1813;52.016;8.714;2023-02-28T12:01:03;4.07;;;3.03;;
3597;SDS011;1813;52.016;8.714;2023-02-28T12:03:49;4.30;;;2.90;;
3597;SDS011;1813;52.016;8.714;2023-02-28T12:06:38;4.70;;;3.10;;
3597;SDS011;1813;52.016;8.714;2023-02-28T12:09:28;5.23;;;3.00;;
3597;SDS011;1813;52.016;8.714;2023-02-28T12:12:18;4.40;;;3.00;;
3597;SDS011;1813;52.016;8.714;2023-02-28T12:15:00;3.87;;;3.00;;
3597;SDS011;1813;52.016;8.714;2023-02-28T12:17:59;4.83;;;3.03;;
3597;SDS011;1813;52.016;8.714;2023-02-28T12:20:48;4.00;;;3.33;;
3597;SDS011;1813;52.016;8.714;2023-02-28T12:26:38;5.93;;;3.20;;
3597;SDS011;1813;52.016;8.714;2023-02-28T12:29:16;4.40;;;2.97;;
3597;SDS011;1813;52.016;8.714;2023-02-28T12:31:56;4.17;;;2.90;;
3597;SDS011;1813;52.016;8.714;2023-02-28T12:34:41;4.20;;;2.97;;
3597;SDS011;1813;52.016;8.714;2023-02-28T12:37:19;3.83;;;3.07;;
3597;SDS011;1813;52.016;8.714;2023-02-28T12:40:00;5.93;;;2.90;;
3597;SDS011;1813;52.016;8.714;2023-02-28T12:42:38;4.20;;;3.00;;
3597;SDS011;1813;52.016;8.714;2023-02-28T12:45:18;3.37;;;3.07;;
3597;SDS011;1813;52.016;8.714;2023-02-28T12:47:55;5.80;;;3.50;;
3597;SDS011;1813;52.016;8.714;2023-02-28T12:50:37;3.60;;;2.90;;
3597;SDS011;1813;52.016;8.714;2023-02-28T12:53:13;6.10;;;3.10;;
3597;SDS011;1813;52.016;8.714;2023-02-28T12:55:59;4.07;;;3.10;;
3597;SDS011;1813;52.016;8.714;2023-02-28T12:58:43;4.77;;;3.20;;
3597;SDS011;1813;52.016;8.714;2023-02-28T13:01:28;6.77;;;2.83;;
3597;SDS011;1813;52.016;8.714;2023-02-28T13:04:32;7.30;;;4.10;;
3597;SDS011;1813;52.016;8.714;2023-02-28T13:07:31;5.43;;;3.50;;
3597;SDS011;1813;52.016;8.714;2023-02-28T13:10:19;5.03;;;3.20;;
3597;SDS011;1813;52.016;8.714;2023-02-28T13:12:54;7.10;;;3.60;;
3597;SDS011;1813;52.016;8.714;2023-02-28T13:15:28;5.30;;;3.50;;
3597;SDS011;1813;52.016;8.714;2023-02-28T13:18:18;8.60;;;3.67;;
3597;SDS011;1813;52.016;8.714;2023-02-28T13:21:01;3.80;;;3.17;;
3597;SDS011;1813;52.016;8.714;2023-02-28T13:23:56;4.30;;;3.40;;
3597;SDS011;1813;52.016;8.714;2023-02-28T13:29:39;5.97;;;3.30;;
3597;SDS011;1813;52.016;8.714;2023-02-28T13:44:16;4.33;;;3.43;;
3597;SDS011;1813;52.016;8.714;2023-02-28T13:49:55;3.57;;;3.20;;
3597;SDS011;1813;52.016;8.714;2023-02-28T13:52:53;4.20;;;3.23;;
3597;SDS011;1813;52.016;8.714;2023-02-28T13:55:37;4.20;;;3.30;;
3597;SDS011;1813;52.016;8.714;2023-02-28T13:58:24;4.97;;;3.67;;
3597;SDS011;1813;52.016;8.714;2023-02-28T14:01:25;4.47;;;3.60;;
3597;SDS011;1813;52.016;8.714;2023-02-28T14:07:18;4.90;;;3.60;;
3597;SDS011;1813;52.016;8.714;2023-02-28T14:09:58;5.70;;;3.80;;
3597;SDS011;1813;52.016;8.714;2023-02-28T14:12:52;7.63;;;3.73;;
3597;SDS011;1813;52.016;8.714;2023-02-28T14:18:32;8.83;;;3.77;;
3597;SDS011;1813;52.016;8.714;2023-02-28T14:21:11;4.50;;;3.30;;
3597;SDS011;1813;52.016;8.714;2023-02-28T14:24:11;5.80;;;3.97;;
3597;SDS011;1813;52.016;8.714;2023-02-28T14:27:22;5.30;;;3.60;;
3597;SDS011;1813;52.016;8.714;2023-02-28T14:30:13;4.20;;;3.50;;
3597;SDS011;1813;52.016;8.714;2023-02-28T14:33:01;4.30;;;3.43;;
3597;SDS011;1813;52.016;8.714;2023-02-28T14:35:53;5.47;;;3.63;;
3597;SDS011;1813;52.016;8.714;2023-02-28T14:38:36;4.10;;;3.60;;
3597;SDS011;1813;52.016;8.714;2023-02-28T14:41:17;7.60;;;3.37;;
3597;SDS011;1813;52.016;8.714;2023-02-28T14:43:57;6.50;;;3.73;;
3597;SDS011;1813;52.016;8.714;2023-02-28T14:46:35;4.50;;;3.37;;
3597;SDS011;1813;52.016;8.714;2023-02-28T14:49:13;7.10;;;4.00;;
3597;SDS011;1813;52.016;8.714;2023-02-28T14:52:03;6.30;;;3.30;;
3597;SDS011;1813;52.016;8.714;2023-02-28T14:54:41;6.40;;;3.80;;
3597;SDS011;1813;52.016;8.714;2023-02-28T14:57:21;3.80;;;3.40;;
3597;SDS011;1813;52.016;8.714;2023-02-28T14:59:58;4.73;;;3.80;;
3597;SDS011;1813;52.016;8.714;2023-02-28T15:02:34;6.40;;;4.10;;
3597;SDS011;1813;52.016;8.714;2023-02-28T15:08:10;3.93;;;3.30;;
3597;SDS011;1813;52.016;8.714;2023-02-28T15:10:49;3.73;;;3.30;;
3597;SDS011;1813;52.016;8.714;2023-02-28T15:13:31;5.33;;;3.70;;
3597;SDS011;1813;52.016;8.714;2023-02-28T15:16:11;9.57;;;3.70;;
3597;SDS011;1813;52.016;8.714;2023-02-28T15:18:50;4.70;;;3.73;;
3597;SDS011;1813;52.016;8.714;2023-02-28T15:21:28;4.60;;;3.93;;
3597;SDS011;1813;52.016;8.714;2023-02-28T15:24:10;4.33;;;3.70;;
3597;SDS011;1813;52.016;8.714;2023-02-28T15:26:54;5.07;;;3.80;;
3597;SDS011;1813;52.016;8.714;2023-02-28T15:29:33;6.10;;;3.90;;
3597;SDS011;1813;52.016;8.714;2023-02-28T15:32:21;5.13;;;3.87;;
3597;SDS011;1813;52.016;8.714;2023-02-28T15:34:59;5.40;;;4.00;;
3597;SDS011;1813;52.016;8.714;2023-02-28T15:37:53;6.43;;;4.10;;
3597;SDS011;1813;52.016;8.714;2023-02-28T15:40:31;6.90;;;4.40;;
3597;SDS011;1813;52.016;8.714;2023-02-28T15:43:13;5.07;;;3.90;;
3597;SDS011;1813;52.016;8.714;2023-02-28T15:45:49;4.50;;;3.90;;
3597;SDS011;1813;52.016;8.714;2023-02-28T15:48:25;5.17;;;4.03;;
3597;SDS011;1813;52.016;8.714;2023-02-28T15:51:02;8.13;;;4.20;;
3597;SDS011;1813;52.016;8.714;2023-02-28T15:53:42;5.70;;;3.90;;
3597;SDS011;1813;52.016;8.714;2023-02-28T15:56:25;6.07;;;4.40;;
3597;SDS011;1813;52.016;8.714;2023-02-28T15:59:02;7.33;;;4.93;;
3597;SDS011;1813;52.016;8.714;2023-02-28T16:01:38;8.00;;;4.37;;
3597;SDS011;1813;52.016;8.714;2023-02-28T16:04:14;5.90;;;4.40;;
3597;SDS011;1813;52.016;8.714;2023-02-28T16:06:55;5.20;;;4.00;;
3597;SDS011;1813;52.016;8.714;2023-02-28T16:09:36;5.63;;;4.00;;
3597;SDS011;1813;52.016;8.714;2023-02-28T16:12:12;5.07;;;3.73;;
3597;SDS011;1813;52.016;8.714;2023-02-28T16:14:47;8.73;;;4.33;;
3597;SDS011;1813;52.016;8.714;2023-02-28T16:17:25;6.03;;;4.17;;
3597;SDS011;1813;52.016;8.714;2023-02-28T16:20:05;6.10;;;4.20;;
3597;SDS011;1813;52.016;8.714;2023-02-28T16:22:46;7.23;;;3.93;;
3597;SDS011;1813;52.016;8.714;2023-02-28T16:25:20;7.57;;;4.40;;
3597;SDS011;1813;52.016;8.714;2023-02-28T16:28:01;6.17;;;3.97;;
3597;SDS011;1813;52.016;8.714;2023-02-28T16:30:36;5.13;;;3.80;;
3597;SDS011;1813;52.016;8.714;2023-02-28T16:33:10;5.53;;;4.00;;
3597;SDS011;1813;52.016;8.714;2023-02-28T16:35:44;4.73;;;3.80;;
3597;SDS011;1813;52.016;8.714;2023-02-28T16:38:18;8.80;;;4.47;;
3597;SDS011;1813;52.016;8.714;2023-02-28T16:40:51;7.83;;;4.83;;
3597;SDS011;1813;52.016;8.714;2023-02-28T16:43:31;6.87;;;4.43;;
3597;SDS011;1813;52.016;8.714;2023-02-28T16:46:05;5.90;;;4.33;;